createdAt,value
2022-11-16T00:01:34.651Z,21.48
2022-11-16T00:06:36.791Z,25.00
2022-11-16T00:11:38.401Z,24.58
2022-11-16T00:16:40.624Z,24.65
2022-11-16T00:21:42.135Z,24.30
2022-11-16T00:26:44.082Z,26.00
2022-11-16T00:31:46.572Z,26.58
2022-11-16T00:36:48.153Z,21.52
2022-11-16T00:41:49.932Z,26.48
2022-11-16T00:46:51.319Z,29.85
2022-11-16T00:51:52.715Z,27.02
2022-11-16T00:56:54.110Z,21.90
2022-11-16T01:01:55.804Z,26.05
2022-11-16T01:06:57.497Z,26.00
2022-11-16T01:12:11.048Z,23.00
2022-11-16T01:17:13.958Z,29.15
2022-11-16T01:22:15.399Z,25.27
2022-11-16T01:27:16.787Z,24.75
2022-11-16T01:32:18.156Z,25.58
2022-11-16T01:37:19.992Z,28.92
2022-11-16T01:42:24.720Z,30.45
2022-11-16T01:47:26.194Z,22.70
2022-11-16T01:52:31.496Z,26.15
2022-11-16T01:57:38.036Z,27.63
2022-11-16T02:08:05.719Z,25.88
2022-11-16T02:13:18.109Z,26.27
2022-11-16T02:18:55.857Z,21.52
2022-11-16T02:24:15.534Z,24.30
2022-11-16T02:29:16.844Z,27.40
2022-11-16T02:34:21.179Z,21.35
2022-11-16T02:39:27.144Z,23.33
2022-11-16T02:44:36.121Z,21.52
2022-11-16T02:49:44.124Z,27.13
2022-11-16T02:54:45.479Z,24.30
2022-11-16T02:59:50.758Z,23.90
2022-11-16T03:05:01.559Z,26.02
2022-11-16T03:10:03.665Z,28.23
2022-11-16T03:15:09.742Z,25.38
2022-11-16T03:20:18.205Z,26.48
2022-11-16T03:25:22.531Z,29.83
2022-11-16T03:30:27.598Z,29.90
2022-11-16T03:35:36.650Z,26.58
2022-11-16T03:40:40.157Z,30.77
2022-11-16T03:45:42.360Z,27.35
2022-11-16T03:50:44.071Z,26.85
2022-11-16T03:55:49.604Z,28.60
2022-11-16T04:00:51.560Z,25.65
2022-11-16T04:06:11.650Z,13.00
2022-11-16T04:11:37.411Z,6.05
2022-11-16T04:16:57.088Z,2.22
2022-11-16T04:22:23.996Z,2.78
2022-11-16T04:27:48.129Z,3.33
2022-11-16T04:33:08.583Z,4.00
2022-11-16T04:38:10.164Z,4.22
2022-11-16T04:43:11.562Z,5.22
2022-11-16T04:48:14.607Z,4.30
2022-11-16T04:53:16.003Z,5.85
2022-11-16T04:58:17.404Z,2.58
2022-11-16T05:03:18.989Z,6.70
2022-11-16T05:08:20.347Z,4.95
2022-11-16T05:13:21.757Z,7.45
2022-11-16T05:18:23.090Z,16.35
2022-11-16T05:23:43.129Z,5.05
2022-11-16T05:28:44.508Z,8.90
2022-11-16T05:33:46.232Z,9.20
2022-11-16T05:38:47.699Z,9.07
2022-11-16T05:43:49.236Z,8.93
2022-11-16T05:48:52.166Z,10.65
2022-11-16T05:53:53.666Z,14.07
2022-11-16T05:58:55.448Z,17.10
2022-11-16T06:04:01.214Z,15.88
2022-11-16T06:09:05.718Z,14.30
2022-11-16T06:14:07.719Z,13.25
2022-11-16T06:19:09.337Z,13.50
2022-11-16T06:24:10.780Z,12.63
2022-11-16T06:29:12.192Z,10.70
2022-11-16T06:34:13.839Z,14.32
2022-11-16T06:39:15.770Z,9.10
2022-11-16T06:44:17.209Z,12.20
2022-11-16T06:49:18.637Z,6.10
2022-11-16T06:54:22.427Z,5.57
2022-11-16T06:59:23.861Z,7.45
2022-11-16T07:04:25.283Z,5.53
2022-11-16T07:09:30.982Z,8.02
2022-11-16T07:14:32.349Z,5.57
2022-11-16T07:19:33.781Z,7.05
2022-11-16T07:24:36.650Z,7.43
2022-11-16T07:29:38.281Z,6.60
2022-11-16T07:34:39.681Z,9.18
2022-11-16T07:39:41.361Z,10.13
2022-11-16T07:44:42.883Z,7.20
2022-11-16T07:49:45.462Z,6.40
2022-11-16T07:54:46.965Z,6.30
2022-11-16T07:59:49.713Z,8.80
2022-11-16T08:04:52.424Z,9.85
2022-11-16T08:09:54.260Z,8.93
2022-11-16T08:14:55.755Z,13.18
2022-11-16T08:19:57.434Z,10.13
2022-11-16T08:25:00.525Z,7.97
2022-11-16T08:30:04.835Z,12.95
2022-11-16T08:35:06.667Z,12.23
2022-11-16T08:40:08.537Z,11.18
2022-11-16T08:45:10.153Z,7.90
2022-11-16T08:50:11.530Z,12.10
2022-11-16T08:55:13.923Z,18.77
2022-11-16T09:00:15.904Z,15.07
2022-11-16T09:05:17.258Z,17.13
2022-11-16T09:10:22.894Z,13.25
2022-11-16T09:15:24.281Z,17.83
2022-11-16T09:20:26.369Z,14.68
2022-11-16T09:25:27.806Z,18.70
2022-11-16T09:30:29.169Z,16.02
2022-11-16T09:35:31.051Z,12.07
2022-11-16T09:40:41.994Z,20.58
2022-11-16T09:45:50.787Z,18.65
2022-11-16T09:51:08.093Z,12.73
2022-11-16T09:56:16.478Z,17.40
2022-11-16T10:01:34.997Z,11.82
2022-11-16T10:07:16.189Z,4.90
2022-11-16T10:12:43.653Z,8.65
2022-11-16T10:18:07.055Z,6.32
2022-11-16T10:23:41.851Z,12.88
2022-11-16T10:29:00.937Z,11.05
2022-11-16T10:39:25.608Z,8.07
2022-11-16T10:44:38.725Z,4.40
2022-11-16T10:49:49.195Z,8.52
2022-11-16T10:54:51.411Z,10.73
2022-11-16T10:59:59.503Z,5.55
2022-11-16T11:05:13.264Z,5.32
2022-11-16T11:10:30.720Z,12.68
2022-11-16T11:15:34.300Z,9.85
2022-11-16T11:20:39.088Z,4.90
2022-11-16T11:25:55.602Z,10.48
2022-11-16T11:31:09.201Z,5.95
2022-11-16T11:36:22.817Z,4.93
2022-11-16T11:41:24.425Z,10.95
2022-11-16T11:46:56.030Z,6.53
2022-11-16T11:51:56.275Z,7.90
2022-11-16T11:57:01.447Z,5.35
2022-11-16T12:02:38.013Z,7.13
2022-11-16T12:08:05.182Z,5.07
2022-11-16T12:13:12.797Z,11.43
2022-11-16T12:18:23.848Z,7.50
2022-11-16T12:23:51.603Z,5.82
2022-11-16T12:29:25.865Z,7.20
2022-11-16T12:35:05.056Z,8.90
2022-11-16T12:40:38.068Z,8.43
2022-11-16T12:45:58.019Z,6.93
2022-11-16T12:51:15.294Z,4.97
2022-11-16T12:56:29.326Z,4.43
2022-11-16T13:01:40.910Z,4.88
2022-11-16T13:06:51.899Z,8.73
2022-11-16T13:12:00.537Z,9.15
2022-11-16T13:17:03.975Z,4.97
2022-11-16T13:22:14.038Z,7.82
2022-11-16T13:27:34.438Z,2.30
2022-11-16T13:32:47.343Z,4.80
2022-11-16T13:37:50.374Z,4.28
2022-11-16T13:43:16.985Z,5.78
2022-11-16T13:48:21.567Z,7.13
2022-11-16T13:58:55.213Z,8.55
2022-11-16T14:04:35.372Z,3.75
2022-11-16T14:09:44.954Z,6.03
2022-11-16T14:15:17.109Z,6.15
2022-11-16T14:20:31.399Z,7.80
2022-11-16T14:25:40.466Z,3.92
2022-11-16T14:31:12.693Z,5.90
2022-11-16T14:36:15.072Z,3.60
2022-11-16T14:41:22.975Z,13.10
2022-11-16T14:46:32.895Z,7.93
2022-11-16T14:51:37.732Z,10.05
2022-11-16T14:56:55.831Z,8.40
2022-11-16T15:02:00.031Z,7.90
2022-11-16T15:07:03.639Z,8.80
2022-11-16T15:12:30.239Z,2.80
2022-11-16T15:17:33.586Z,6.18
2022-11-16T15:22:42.010Z,7.72
2022-11-16T15:27:43.662Z,4.13
2022-11-16T15:32:47.908Z,9.63
2022-11-16T15:38:03.314Z,11.35
2022-11-16T15:43:06.630Z,9.70
2022-11-16T15:48:17.037Z,12.35
2022-11-16T15:53:40.840Z,25.42
2022-11-16T15:58:42.767Z,20.98
2022-11-16T16:03:54.400Z,31.52
2022-11-16T16:09:06.230Z,13.13
2022-11-16T16:14:10.801Z,7.15
2022-11-16T16:19:34.401Z,10.98
2022-11-16T16:24:44.669Z,5.65
2022-11-16T16:29:48.378Z,8.90
2022-11-16T16:34:50.648Z,12.50
2022-11-16T16:39:52.101Z,6.68
2022-11-16T16:44:55.179Z,8.55
2022-11-16T16:49:59.317Z,7.82
2022-11-16T16:55:00.868Z,10.77
2022-11-16T17:00:02.615Z,6.60
2022-11-16T17:05:04.780Z,12.25
2022-11-16T17:10:07.038Z,43.42
2022-11-16T17:15:13.843Z,12.55
2022-11-16T17:20:18.990Z,17.75
2022-11-16T17:25:21.131Z,18.20
2022-11-16T17:30:24.204Z,10.88
2022-11-16T17:35:25.734Z,5.88
2022-11-16T17:40:28.978Z,10.98
2022-11-16T17:45:30.568Z,6.15
2022-11-16T17:50:31.933Z,9.25
2022-11-16T17:55:33.448Z,7.30
2022-11-16T18:00:34.988Z,8.63
2022-11-16T18:05:37.643Z,8.63
2022-11-16T18:10:40.502Z,6.40
2022-11-16T18:15:42.681Z,10.18
2022-11-16T18:20:44.872Z,11.60
2022-11-16T18:25:46.293Z,11.27
2022-11-16T18:30:47.892Z,13.23
2022-11-16T18:35:50.767Z,7.50
2022-11-16T18:41:11.234Z,8.95
2022-11-16T18:46:12.797Z,5.53
2022-11-16T18:51:16.329Z,9.50
2022-11-16T18:56:18.427Z,8.38
2022-11-16T19:01:22.986Z,10.38
2022-11-16T19:06:24.705Z,14.73
2022-11-16T19:11:27.890Z,8.75
2022-11-16T19:16:30.455Z,10.90
2022-11-16T19:21:32.050Z,19.98
2022-11-16T19:26:33.525Z,8.63
2022-11-16T19:31:34.956Z,3.63
2022-11-16T19:36:37.263Z,6.22
2022-11-16T19:41:38.762Z,8.88
2022-11-16T19:46:45.138Z,13.02
2022-11-16T19:51:46.549Z,30.23
2022-11-16T19:56:54.747Z,14.25
2022-11-16T20:01:56.594Z,6.10
2022-11-16T20:06:59.926Z,5.50
2022-11-16T20:12:01.364Z,4.13
2022-11-16T20:17:03.025Z,15.27
2022-11-16T20:22:05.527Z,10.85
2022-11-16T20:27:07.823Z,6.03
2022-11-16T20:32:09.320Z,7.43
2022-11-16T20:37:11.844Z,6.03
2022-11-16T20:42:13.894Z,7.68
2022-11-16T20:47:17.632Z,9.00
2022-11-16T20:52:21.501Z,7.70
2022-11-16T20:57:30.068Z,10.90
2022-11-16T21:02:31.558Z,8.98
2022-11-16T21:07:33.133Z,7.60
2022-11-16T21:12:55.056Z,13.00
2022-11-16T21:18:01.422Z,8.13
2022-11-16T21:23:04.230Z,12.07
2022-11-16T21:28:07.264Z,13.70
2022-11-16T21:33:11.641Z,8.93
2022-11-16T21:38:14.049Z,11.73
2022-11-16T21:43:16.582Z,12.15
2022-11-16T21:48:18.365Z,10.40
2022-11-16T21:53:19.953Z,10.77
2022-11-16T21:58:22.576Z,16.85
2022-11-16T22:03:30.008Z,9.05
2022-11-16T22:08:31.806Z,16.00
2022-11-16T22:13:34.221Z,24.17
2022-11-16T22:18:36.174Z,14.50
2022-11-16T22:23:38.119Z,11.25
2022-11-16T22:28:40.056Z,7.70
2022-11-16T22:33:42.136Z,5.80
2022-11-16T22:38:43.595Z,4.85
2022-11-16T22:43:45.114Z,7.70
2022-11-16T22:48:47.917Z,6.75
2022-11-16T22:53:57.583Z,5.03
2022-11-16T22:59:00.730Z,6.55
2022-11-16T23:04:02.916Z,8.13
2022-11-16T23:09:05.828Z,5.90
2022-11-16T23:14:29.291Z,4.45
2022-11-16T23:19:49.169Z,9.50
2022-11-16T23:25:08.942Z,7.53
2022-11-16T23:30:13.347Z,3.78
2022-11-16T23:35:15.037Z,8.02
2022-11-16T23:40:17.870Z,5.57
2022-11-16T23:45:20.519Z,9.80
2022-11-16T23:50:22.045Z,8.38
2022-11-16T23:55:26.837Z,5.18
